Time;durP1;ratioP1;P1;durP2;ratioP2;P2;SDS_P1;SDS_P2;PMS_P1;PMS_P2;Temp;Humidity;BMP_temperature;BMP_pressure;BME280_temperature;BME280_humidity;BME280_pressure;Samples;Min_cycle;Max_cycle;Signal;HPM_P1;HPM_P2
2022/03/06 00:00:40;;;;;;;11.57;5.28;;;-1.40;29.60;;;;;;5065599;28;34142;-77
2022/03/06 00:03:07;;;;;;;12.02;5.80;;;-1.40;29.40;;;;;;5047413;28;36090;-77
2022/03/06 00:05:33;;;;;;;9.10;5.00;;;-1.40;29.20;;;;;;5030839;28;34363;-77
2022/03/06 00:07:59;;;;;;;10.05;4.72;;;-1.50;29.50;;;;;;5030885;28;34298;-77
2022/03/06 00:10:26;;;;;;;9.25;5.35;;;-1.50;29.20;;;;;;5046887;28;34052;-77
2022/03/06 00:12:58;;;;;;;8.43;4.90;;;-1.50;29.50;;;;;;5048177;28;34451;-77
2022/03/06 00:15:26;;;;;;;11.05;5.20;;;-1.60;29.80;;;;;;5047159;28;33617;-77
2022/03/06 00:17:54;;;;;;;10.25;5.38;;;-1.60;30.00;;;;;;5031315;28;34368;-77
2022/03/06 00:20:20;;;;;;;9.15;4.75;;;-1.60;29.80;;;;;;5046778;28;34079;-77
2022/03/06 00:22:46;;;;;;;11.93;5.65;;;-1.60;30.20;;;;;;5047119;28;35519;-77
2022/03/06 00:25:12;;;;;;;11.43;5.22;;;-1.70;30.00;;;;;;5046712;28;34145;-77
2022/03/06 00:27:38;;;;;;;10.45;5.43;;;-1.70;30.40;;;;;;5047321;28;34361;-77
2022/03/06 00:30:05;;;;;;;8.48;4.30;;;-1.70;30.10;;;;;;5030575;28;34539;-77
2022/03/06 00:32:32;;;;;;;8.85;4.78;;;-1.80;30.30;;;;;;5047124;28;35162;-77
2022/03/06 00:34:58;;;;;;;9.68;5.15;;;-1.80;30.30;;;;;;5046868;28;34202;-77
2022/03/06 00:37:23;;;;;;;8.85;4.85;;;-1.80;30.40;;;;;;5030508;28;34249;-77
2022/03/06 00:39:49;;;;;;;10.10;4.95;;;-1.80;30.50;;;;;;5046817;28;34212;-76
2022/03/06 00:42:15;;;;;;;12.00;5.18;;;-1.80;30.20;;;;;;5064063;28;34505;-77
2022/03/06 00:44:41;;;;;;;7.65;4.60;;;-1.90;30.40;;;;;;5046719;28;34345;-77
2022/03/06 00:47:07;;;;;;;9.18;5.25;;;-1.90;30.60;;;;;;5030289;28;34183;-77
2022/03/06 00:49:34;;;;;;;9.27;4.90;;;-1.90;30.60;;;;;;5047239;28;34274;-77
2022/03/06 00:52:00;;;;;;;9.70;4.75;;;-1.90;30.70;;;;;;5046310;28;36399;-77
2022/03/06 00:54:26;;;;;;;8.95;5.22;;;-2.00;30.40;;;;;;5047003;28;34286;-77
2022/03/06 00:56:52;;;;;;;10.38;4.78;;;-2.00;30.40;;;;;;5046950;28;34369;-77
2022/03/06 00:59:18;;;;;;;8.77;5.45;;;-2.00;30.50;;;;;;5030135;28;34136;-77
2022/03/06 01:01:44;;;;;;;6.78;4.40;;;-2.10;30.40;;;;;;5013561;28;35792;-77
2022/03/06 01:04:10;;;;;;;7.97;4.45;;;-2.10;30.20;;;;;;5064341;28;34120;-78
2022/03/06 01:06:36;;;;;;;8.18;5.30;;;-2.10;30.60;;;;;;5030197;28;34061;-77
2022/03/06 01:09:04;;;;;;;10.77;4.70;;;-2.10;30.80;;;;;;5046513;28;34133;-77
2022/03/06 01:11:30;;;;;;;8.48;5.13;;;-2.20;30.50;;;;;;5045894;28;36435;-77
2022/03/06 01:13:56;;;;;;;9.25;5.40;;;-2.20;30.80;;;;;;5046753;28;34424;-77
2022/03/06 01:16:22;;;;;;;10.02;5.28;;;-2.20;30.60;;;;;;5046504;28;34120;-77
2022/03/06 01:18:48;;;;;;;6.93;4.53;;;-2.20;30.60;;;;;;5064479;28;34296;-77
2022/03/06 01:21:14;;;;;;;11.48;5.32;;;-2.30;30.60;;;;;;5013001;28;35580;-77
2022/03/06 01:23:40;;;;;;;11.05;5.20;;;-2.30;30.90;;;;;;5046097;28;34155;-77
2022/03/06 01:26:06;;;;;;;10.65;5.38;;;-2.30;31.10;;;;;;5029637;28;34030;-77
2022/03/06 01:28:32;;;;;;;8.52;4.60;;;-2.30;31.30;;;;;;5030243;28;34490;-77
2022/03/06 01:30:58;;;;;;;9.05;4.47;;;-2.40;31.20;;;;;;5064044;28;35172;-77
2022/03/06 01:33:24;;;;;;;8.15;4.15;;;-2.40;30.90;;;;;;5046404;28;34268;-78
2022/03/06 01:35:50;;;;;;;11.13;5.15;;;-2.40;31.30;;;;;;5046658;28;34410;-78
2022/03/06 01:38:16;;;;;;;8.30;5.03;;;-2.40;31.70;;;;;;5046395;28;34158;-78
2022/03/06 01:40:42;;;;;;;11.30;4.53;;;-2.40;31.90;;;;;;5046001;28;35795;-78
2022/03/06 01:43:08;;;;;;;8.18;4.55;;;-2.50;31.00;;;;;;5063744;28;34163;-78
2022/03/06 01:45:35;;;;;;;6.57;4.28;;;-2.50;31.50;;;;;;5063961;28;34160;-77
2022/03/06 01:48:03;;;;;;;8.85;5.03;;;-2.50;31.20;;;;;;5046309;28;34093;-78
2022/03/06 01:50:33;;;;;;;8.90;4.97;;;-2.50;31.20;;;;;;5044891;28;35844;-77
2022/03/06 01:53:00;;;;;;;9.70;5.25;;;-2.50;31.90;;;;;;5046374;28;34099;-77
2022/03/06 01:55:28;;;;;;;10.10;5.13;;;-2.60;31.60;;;;;;5029798;28;34078;-78
2022/03/06 01:57:56;;;;;;;8.68;4.22;;;-2.60;31.70;;;;;;5047029;28;34317;-77
2022/03/06 02:00:24;;;;;;;9.80;5.30;;;-2.60;31.80;;;;;;5046473;28;35994;-77
2022/03/06 02:02:51;;;;;;;10.38;4.15;;;-2.70;31.90;;;;;;5029822;28;34115;-78
2022/03/06 02:05:18;;;;;;;8.15;5.07;;;-2.70;32.20;;;;;;5064039;28;34574;-78
2022/03/06 02:07:44;;;;;;;9.68;5.32;;;-2.70;31.60;;;;;;5046280;28;34062;-78
2022/03/06 02:10:10;;;;;;;10.30;4.85;;;-2.70;31.60;;;;;;5029121;28;35921;-78
2022/03/06 02:12:37;;;;;;;7.45;4.68;;;-2.80;31.50;;;;;;5029363;28;34116;-78
2022/03/06 02:15:07;;;;;;;9.50;4.95;;;-2.80;31.50;;;;;;5029765;28;34204;-78
2022/03/06 02:17:37;;;;;;;8.60;4.90;;;-2.80;31.40;;;;;;5046121;28;34520;-78
2022/03/06 02:20:09;;;;;;;7.85;4.78;;;-2.80;31.50;;;;;;5046136;28;35855;-78
2022/03/06 02:22:39;;;;;;;11.13;5.10;;;-2.90;31.80;;;;;;5029823;28;34209;-78
2022/03/06 02:25:10;;;;;;;8.55;4.97;;;-2.90;32.10;;;;;;5029017;28;34133;-78
2022/03/06 02:27:36;;;;;;;8.25;5.10;;;-2.90;32.30;;;;;;5064472;28;34125;-78
2022/03/06 02:30:06;;;;;;;12.93;5.18;;;-2.90;32.20;;;;;;5029575;28;35545;-78
2022/03/06 02:32:32;;;;;;;7.68;4.57;;;-2.90;31.70;;;;;;5046057;28;34376;-78
2022/03/06 02:34:58;;;;;;;9.93;4.97;;;-3.00;31.80;;;;;;5046129;28;34223;-78
2022/03/06 02:37:24;;;;;;;9.07;5.15;;;-3.00;32.50;;;;;;5063778;28;34512;-78
2022/03/06 02:39:50;;;;;;;8.15;4.95;;;-3.00;32.30;;;;;;5045346;28;35964;-78
2022/03/06 02:42:26;;;;;;;13.80;4.35;;;-3.00;32.00;;;;;;5045940;28;34354;-78
2022/03/06 02:44:52;;;;;;;7.18;4.47;;;-3.10;32.40;;;;;;5013384;28;34288;-78
2022/03/06 02:47:18;;;;;;;7.90;4.35;;;-3.10;32.20;;;;;;5045970;28;34362;-78
2022/03/06 02:49:44;;;;;;;11.38;5.35;;;-3.10;31.70;;;;;;5045852;28;35574;-78
2022/03/06 02:52:10;;;;;;;9.90;4.35;;;-3.10;32.00;;;;;;5045442;28;34265;-77
2022/03/06 02:54:37;;;;;;;9.95;4.53;;;-3.10;32.20;;;;;;5029627;28;34200;-78
2022/03/06 02:57:05;;;;;;;7.65;4.32;;;-3.20;31.70;;;;;;5063779;28;34378;-78
2022/03/06 02:59:31;;;;;;;7.72;4.40;;;-3.20;32.00;;;;;;5029113;28;35807;-78
2022/03/06 03:01:57;;;;;;;9.48;4.32;;;-3.20;31.60;;;;;;5047905;28;34211;-78
2022/03/06 03:04:23;;;;;;;9.55;4.63;;;-3.20;32.00;;;;;;5032965;28;34225;-78
2022/03/06 03:06:50;;;;;;;7.97;4.97;;;-3.30;32.70;;;;;;5049192;28;34182;-78
2022/03/06 03:09:19;;;;;;;9.88;4.47;;;-3.30;32.50;;;;;;5049364;28;35546;-78
2022/03/06 03:11:47;;;;;;;4.90;3.53;;;-3.30;32.30;;;;;;5032610;28;34272;-78
2022/03/06 03:14:13;;;;;;;8.18;4.80;;;-3.30;32.30;;;;;;5033465;28;34197;-78
2022/03/06 03:16:40;;;;;;;9.00;3.88;;;-3.30;32.30;;;;;;5033173;28;34248;-78
2022/03/06 03:19:07;;;;;;;6.18;3.83;;;-3.30;32.20;;;;;;5032266;28;36897;-78
2022/03/06 03:21:33;;;;;;;7.18;4.20;;;-3.40;32.20;;;;;;5049300;28;34073;-78
2022/03/06 03:23:59;;;;;;;7.72;4.18;;;-3.40;32.30;;;;;;5032457;28;34152;-78
2022/03/06 03:26:25;;;;;;;9.20;4.00;;;-3.40;31.90;;;;;;5032408;28;34192;-78
2022/03/06 03:28:52;;;;;;;6.20;4.07;;;-3.40;32.30;;;;;;5048635;28;35598;-78
2022/03/06 03:31:18;;;;;;;6.15;4.07;;;-3.50;32.80;;;;;;5032756;28;34134;-78
2022/03/06 03:33:44;;;;;;;4.88;3.83;;;-3.50;32.90;;;;;;5048742;28;34182;-78
2022/03/06 03:36:10;;;;;;;8.82;3.55;;;-3.50;32.80;;;;;;5032539;28;34153;-78
2022/03/06 03:38:38;;;;;;;9.18;5.10;;;-3.50;32.80;;;;;;5032085;28;36327;-77
2022/03/06 03:41:04;;;;;;;8.05;4.57;;;-3.50;32.80;;;;;;5048801;28;34131;-77
2022/03/06 03:43:30;;;;;;;8.98;4.80;;;-3.50;32.80;;;;;;5048786;28;34421;-78
2022/03/06 03:45:59;;;;;;;7.68;3.75;;;-3.50;32.20;;;;;;5032199;28;34140;-78
2022/03/06 03:48:28;;;;;;;8.50;3.80;;;-3.60;32.30;;;;;;5032545;28;35567;-78
2022/03/06 03:50:54;;;;;;;6.90;4.55;;;-3.60;32.30;;;;;;5049116;28;34393;-78
2022/03/06 03:53:22;;;;;;;5.93;3.90;;;-3.60;32.30;;;;;;5032243;28;34445;-77
2022/03/06 03:55:48;;;;;;;6.13;3.70;;;-3.60;32.40;;;;;;5032516;28;34051;-77
2022/03/06 03:58:14;;;;;;;7.45;3.80;;;-3.70;32.70;;;;;;5048832;28;34260;-77
2022/03/06 04:00:43;;;;;;;8.77;4.28;;;-3.70;32.80;;;;;;5032556;28;34149;-77
2022/03/06 04:03:09;;;;;;;5.03;3.22;;;-3.70;32.40;;;;;;5032582;28;34085;-78
2022/03/06 04:05:36;;;;;;;8.60;4.32;;;-3.70;32.30;;;;;;5049607;28;33808;-78
2022/03/06 04:11:24;;;;;;;5.68;3.83;;;-3.80;33.00;;;;;;5064567;28;34273;-78
2022/03/06 04:13:49;;;;;;;5.40;3.08;;;-3.80;32.80;;;;;;5032095;28;34246;-77
2022/03/06 04:16:15;;;;;;;8.18;3.40;;;-3.80;33.00;;;;;;5067485;28;34283;-78
2022/03/06 04:18:41;;;;;;;10.32;4.05;;;-3.80;33.20;;;;;;5049081;28;36671;-78
2022/03/06 04:21:07;;;;;;;9.47;3.97;;;-3.90;33.30;;;;;;5049113;28;34251;-78
2022/03/06 04:23:33;;;;;;;8.05;3.20;;;-3.80;33.10;;;;;;5048722;28;33742;-78
2022/03/06 04:25:59;;;;;;;5.90;3.47;;;-3.90;33.40;;;;;;5032967;28;34015;-77
2022/03/06 04:28:25;;;;;;;10.43;4.60;;;-3.90;33.50;;;;;;5048347;28;35836;-78
2022/03/06 04:30:51;;;;;;;6.40;4.22;;;-3.90;33.50;;;;;;5049071;28;34114;-77
2022/03/06 04:33:17;;;;;;;10.27;4.43;;;-3.90;33.30;;;;;;5066969;28;34419;-78
2022/03/06 04:35:43;;;;;;;6.17;3.73;;;-3.90;33.70;;;;;;5032975;28;34438;-77
2022/03/06 04:38:09;;;;;;;7.47;4.03;;;-3.90;33.80;;;;;;5049087;28;35799;-78
2022/03/06 04:40:35;;;;;;;8.20;3.78;;;-3.90;33.40;;;;;;5048160;28;34318;-78
2022/03/06 04:43:01;;;;;;;6.93;3.70;;;-3.90;33.50;;;;;;5048280;28;34293;-78
2022/03/06 04:45:27;;;;;;;12.43;4.10;;;-3.90;33.30;;;;;;5048739;28;34147;-78
2022/03/06 04:47:53;;;;;;;9.82;4.13;;;-3.90;33.00;;;;;;5032031;28;36682;-78
2022/03/06 04:50:19;;;;;;;9.07;3.90;;;-3.90;33.00;;;;;;5015257;28;34110;-78
2022/03/06 04:52:45;;;;;;;8.82;4.25;;;-3.90;32.80;;;;;;5048656;28;34151;-77
2022/03/06 04:55:11;;;;;;;7.47;4.10;;;-3.90;33.30;;;;;;5031816;28;34070;-78
2022/03/06 04:57:37;;;;;;;12.38;4.35;;;-4.00;33.10;;;;;;5048281;28;35491;-78
2022/03/06 05:00:06;;;;;;;10.30;4.32;;;-3.90;32.80;;;;;;5032535;28;34166;-78
2022/03/06 05:02:31;;;;;;;7.07;4.00;;;-4.00;32.80;;;;;;5031615;28;34217;-78
2022/03/06 05:04:57;;;;;;;7.70;3.83;;;-4.00;32.70;;;;;;5066493;28;34100;-78
2022/03/06 05:07:23;;;;;;;5.50;3.60;;;-4.10;32.80;;;;;;5048172;28;36025;-78
2022/03/06 05:09:50;;;;;;;6.13;3.90;;;-4.10;33.10;;;;;;5065680;28;34067;-78
2022/03/06 05:12:16;;;;;;;7.23;4.17;;;-4.10;33.10;;;;;;5030530;28;34226;-78
2022/03/06 05:14:42;;;;;;;6.97;3.92;;;-4.10;33.30;;;;;;5027833;28;34742;-78
2022/03/06 05:17:08;;;;;;;5.83;3.60;;;-4.10;33.80;;;;;;5045301;28;34621;-78
2022/03/06 05:19:33;;;;;;;6.53;3.67;;;-4.10;33.20;;;;;;5028245;28;34377;-78
2022/03/06 05:21:59;;;;;;;7.87;4.20;;;-4.20;33.30;;;;;;5027795;28;34094;-78
2022/03/06 05:24:25;;;;;;;5.03;3.07;;;-4.10;33.30;;;;;;5010662;28;34465;-77
2022/03/06 05:26:51;;;;;;;7.15;4.07;;;-4.20;33.00;;;;;;5044758;28;34880;-78
2022/03/06 05:29:18;;;;;;;8.10;3.97;;;-4.20;33.10;;;;;;5027820;28;34143;-78
2022/03/06 05:31:44;;;;;;;6.63;4.00;;;-4.20;32.80;;;;;;5045266;28;34204;-78
2022/03/06 05:34:10;;;;;;;8.40;3.67;;;-4.20;33.00;;;;;;5027256;28;34305;-77
2022/03/06 05:36:35;;;;;;;8.52;5.10;;;-4.30;33.20;;;;;;5027112;28;35902;-78
2022/03/06 05:39:02;;;;;;;5.37;3.77;;;-4.30;33.30;;;;;;5026558;28;33999;-78
2022/03/06 05:41:27;;;;;;;9.97;5.17;;;-4.30;33.60;;;;;;5027396;28;34063;-78
2022/03/06 05:43:53;;;;;;;7.93;4.33;;;-4.30;33.60;;;;;;5010659;28;34063;-78
2022/03/06 05:46:19;;;;;;;7.97;3.97;;;-4.40;34.10;;;;;;4994140;28;35923;-78
2022/03/06 05:48:46;;;;;;;7.38;4.00;;;-4.40;34.00;;;;;;5026772;28;34120;-78
2022/03/06 05:51:12;;;;;;;9.10;4.27;;;-4.30;33.70;;;;;;5026699;28;34312;-78
2022/03/06 05:53:38;;;;;;;6.47;3.95;;;-4.40;33.50;;;;;;5045107;28;34357;-78
2022/03/06 05:56:04;;;;;;;7.57;4.40;;;-4.30;33.80;;;;;;5009864;28;36253;-78
2022/03/06 05:58:30;;;;;;;5.93;3.15;;;-4.40;33.60;;;;;;5026747;28;34320;-78
2022/03/06 06:00:56;;;;;;;6.23;3.47;;;-4.40;33.70;;;;;;5010535;28;34227;-78
2022/03/06 06:03:22;;;;;;;6.67;3.87;;;-4.30;33.50;;;;;;5026449;28;34087;-78
2022/03/06 06:05:48;;;;;;;6.03;3.90;;;-4.40;33.30;;;;;;5026707;28;35660;-78
2022/03/06 06:08:13;;;;;;;8.30;3.63;;;-4.40;33.40;;;;;;5026940;28;34035;-78
2022/03/06 06:10:39;;;;;;;7.82;4.32;;;-4.40;32.90;;;;;;5026733;28;34087;-78
2022/03/06 06:13:09;;;;;;;9.83;4.33;;;-4.40;33.20;;;;;;5021283;28;34426;-78
2022/03/06 06:15:37;;;;;;;8.40;4.53;;;-4.40;33.00;;;;;;5005976;28;35676;-78
2022/03/06 06:18:03;;;;;;;6.33;3.73;;;-4.40;33.50;;;;;;5007121;28;34194;-78
2022/03/06 06:20:29;;;;;;;5.40;3.53;;;-4.40;33.40;;;;;;5006934;28;34127;-77
2022/03/06 06:22:55;;;;;;;5.70;3.33;;;-4.40;33.40;;;;;;4990265;28;34523;-78
2022/03/06 06:25:21;;;;;;;6.20;4.13;;;-4.40;33.10;;;;;;5023845;28;35021;-78
2022/03/06 06:27:47;;;;;;;9.50;4.30;;;-4.40;33.90;;;;;;5024508;28;34206;-78
2022/03/06 06:30:13;;;;;;;8.37;4.23;;;-4.40;33.60;;;;;;4990369;28;34253;-78
2022/03/06 06:32:39;;;;;;;7.40;4.27;;;-4.40;33.60;;;;;;5007878;28;34141;-78
2022/03/06 06:35:06;;;;;;;5.63;3.47;;;-4.40;33.80;;;;;;5006521;28;34470;-78
2022/03/06 06:37:32;;;;;;;8.00;4.60;;;-4.40;33.50;;;;;;5010612;28;34080;-78
2022/03/06 06:39:57;;;;;;;5.90;3.97;;;-4.30;33.50;;;;;;5010507;28;34313;-78
2022/03/06 06:42:23;;;;;;;9.00;3.50;;;-4.30;33.20;;;;;;5010142;28;34434;-77
2022/03/06 06:44:49;;;;;;;6.87;3.40;;;-4.20;33.50;;;;;;4992796;28;36567;-78
2022/03/06 06:47:15;;;;;;;6.07;3.83;;;-4.20;33.60;;;;;;5029488;28;34146;-78
2022/03/06 06:49:41;;;;;;;6.68;3.85;;;-4.00;33.90;;;;;;5029753;28;34154;-78
2022/03/06 06:52:07;;;;;;;7.10;4.20;;;-3.80;33.80;;;;;;5014006;28;34029;-78
2022/03/06 06:54:33;;;;;;;6.25;3.65;;;-3.60;33.80;;;;;;5029285;28;35636;-78
2022/03/06 06:56:59;;;;;;;6.65;4.43;;;-3.40;33.50;;;;;;5029723;28;34141;-78
2022/03/06 06:59:25;;;;;;;9.00;4.32;;;-3.20;33.10;;;;;;5029289;28;34084;-78
2022/03/06 07:01:51;;;;;;;6.78;4.55;;;-3.00;32.80;;;;;;5029283;28;34091;-78
2022/03/06 07:04:17;;;;;;;12.30;5.28;;;-2.80;32.60;;;;;;5029684;28;35753;-78
2022/03/06 07:06:44;;;;;;;9.02;5.05;;;-2.60;32.40;;;;;;5029808;28;34091;-78
2022/03/06 07:09:10;;;;;;;9.30;5.18;;;-2.40;31.90;;;;;;4996724;28;34242;-78
2022/03/06 07:11:36;;;;;;;7.30;4.25;;;-2.20;31.70;;;;;;5029354;28;34355;-78
2022/03/06 07:14:02;;;;;;;8.52;4.85;;;-2.00;31.40;;;;;;5028685;28;36578;-78
2022/03/06 07:16:28;;;;;;;11.52;5.68;;;-1.80;31.00;;;;;;5029369;28;34280;-78
2022/03/06 07:18:54;;;;;;;7.15;4.78;;;-1.60;31.00;;;;;;5012850;28;34244;-79
2022/03/06 07:21:20;;;;;;;10.00;4.97;;;-1.50;30.80;;;;;;5029473;28;34153;-78
2022/03/06 07:23:46;;;;;;;9.23;6.03;;;-1.40;30.50;;;;;;5029232;28;35583;-78
2022/03/06 07:26:12;;;;;;;11.52;5.57;;;-1.20;30.40;;;;;;5029494;28;34082;-79
2022/03/06 07:28:37;;;;;;;11.73;5.95;;;-1.10;30.20;;;;;;5047935;28;34319;-79
2022/03/06 07:31:03;;;;;;;9.82;5.00;;;-0.90;30.00;;;;;;5029801;28;34031;-79
2022/03/06 07:33:29;;;;;;;8.63;5.57;;;-0.70;30.00;;;;;;5047584;28;34290;-79
2022/03/06 07:35:55;;;;;;;12.18;5.80;;;-0.50;29.60;;;;;;5030554;28;34229;-79
2022/03/06 07:38:21;;;;;;;7.75;4.75;;;-0.30;29.30;;;;;;5013934;28;34334;-79
2022/03/06 07:40:47;;;;;;;10.27;5.95;;;-0.10;29.20;;;;;;5030197;28;34492;-79
2022/03/06 07:43:13;;;;;;;10.13;5.88;;;0.00;28.60;;;;;;5013671;28;36031;-79
2022/03/06 07:45:39;;;;;;;9.52;5.40;;;0.10;28.70;;;;;;5014092;28;34166;-79
2022/03/06 07:48:05;;;;;;;10.30;6.43;;;0.30;28.70;;;;;;4996594;28;34202;-79
2022/03/06 07:50:31;;;;;;;11.43;6.68;;;0.50;28.60;;;;;;5030501;28;34138;-79
2022/03/06 07:52:57;;;;;;;9.98;6.88;;;0.70;28.40;;;;;;5031024;28;36476;-79
2022/03/06 07:55:23;;;;;;;12.20;8.05;;;0.90;28.50;;;;;;5013535;28;34288;-79
2022/03/06 07:57:49;;;;;;;12.68;7.55;;;1.00;28.20;;;;;;5048083;28;34380;-79
2022/03/06 08:00:16;;;;;;;16.73;7.95;;;1.30;28.50;;;;;;5029664;28;34261;-79
2022/03/06 08:02:42;;;;;;;10.63;6.70;;;1.50;27.60;;;;;;5028731;28;35707;-78
2022/03/06 08:05:08;;;;;;;12.63;6.75;;;1.60;27.60;;;;;;5028307;28;34283;-78
2022/03/06 08:07:35;;;;;;;17.13;7.13;;;1.80;27.10;;;;;;5028561;28;34282;-78
2022/03/06 08:10:04;;;;;;;11.30;6.45;;;1.90;26.90;;;;;;5028483;28;34530;-78
2022/03/06 08:12:30;;;;;;;13.25;7.18;;;2.10;27.00;;;;;;5030750;28;36368;-78
2022/03/06 08:14:56;;;;;;;16.10;6.28;;;2.30;27.00;;;;;;5047928;28;34440;-79
2022/03/06 08:17:22;;;;;;;10.13;5.90;;;2.50;27.20;;;;;;5047868;28;34455;-78
2022/03/06 08:19:48;;;;;;;11.55;6.47;;;2.60;27.50;;;;;;5048080;28;34468;-78
2022/03/06 08:22:14;;;;;;;13.07;6.78;;;2.70;27.40;;;;;;5065503;28;34210;-78
2022/03/06 08:25:00;;;;;;;13.70;6.97;;;2.80;27.40;;;;;;5065855;28;34127;-78
2022/03/06 08:27:26;;;;;;;12.75;6.28;;;3.00;29.10;;;;;;5048342;28;34245;-79
2022/03/06 08:29:52;;;;;;;11.70;6.38;;;3.10;27.30;;;;;;5066637;28;34354;-79
2022/03/06 08:32:18;;;;;;;9.80;6.43;;;3.20;27.30;;;;;;5068364;28;34119;-78
2022/03/06 08:34:45;;;;;;;13.73;6.63;;;3.20;27.40;;;;;;5053330;28;33701;-79
2022/03/06 08:37:11;;;;;;;11.57;6.53;;;3.30;27.60;;;;;;5053212;28;34165;-79
2022/03/06 08:39:37;;;;;;;12.05;6.85;;;3.40;27.80;;;;;;5052980;28;34128;-79
2022/03/06 08:42:03;;;;;;;11.95;6.32;;;3.50;27.70;;;;;;5036644;28;35535;-79
2022/03/06 08:44:29;;;;;;;13.98;6.68;;;3.60;27.80;;;;;;5019557;28;34105;-79
2022/03/06 08:46:55;;;;;;;10.52;6.05;;;3.80;28.00;;;;;;5050623;28;34185;-78
2022/03/06 08:49:22;;;;;;;10.80;6.13;;;3.90;27.90;;;;;;5031612;28;34050;-78
2022/03/06 08:51:48;;;;;;;9.70;6.43;;;4.10;27.40;;;;;;5030910;28;36675;-78
2022/03/06 08:54:15;;;;;;;10.60;6.88;;;4.30;27.30;;;;;;5065339;28;34258;-77
2022/03/06 08:56:42;;;;;;;8.48;6.20;;;4.70;27.30;;;;;;5046871;28;34352;-77
2022/03/06 08:59:08;;;;;;;13.13;6.47;;;5.00;27.00;;;;;;5030212;28;34265;-77
2022/03/06 09:01:34;;;;;;;9.25;6.15;;;5.20;26.80;;;;;;5065721;28;34175;-77
2022/03/06 09:04:00;;;;;;;11.48;5.80;;;5.50;26.60;;;;;;5030067;28;34208;-77
2022/03/06 09:06:27;;;;;;;10.23;6.25;;;5.70;25.90;;;;;;5030076;28;34381;-77
2022/03/06 09:08:54;;;;;;;7.50;5.35;;;6.00;25.60;;;;;;5031142;28;34545;-77
2022/03/06 09:11:20;;;;;;;9.27;6.00;;;6.30;24.80;;;;;;5022820;28;35883;-77
2022/03/06 09:13:46;;;;;;;9.35;5.65;;;6.40;24.00;;;;;;5024921;28;34065;-77
2022/03/06 09:16:13;;;;;;;10.68;5.97;;;6.70;24.20;;;;;;5044462;28;34158;-77
2022/03/06 09:18:39;;;;;;;9.98;5.88;;;6.90;24.00;;;;;;5011473;28;34051;-77
2022/03/06 09:21:06;;;;;;;7.60;5.45;;;7.20;23.60;;;;;;5010736;28;36341;-77
2022/03/06 09:23:33;;;;;;;8.18;5.30;;;7.50;23.20;;;;;;5027193;28;34205;-77
2022/03/06 09:25:59;;;;;;;6.63;5.00;;;7.70;22.90;;;;;;5026966;28;34350;-77
2022/03/06 09:28:25;;;;;;;8.63;5.00;;;8.00;22.30;;;;;;5010344;28;34011;-77
2022/03/06 09:30:52;;;;;;;7.53;5.28;;;8.20;21.40;;;;;;5026397;28;35562;-77
2022/03/06 09:33:18;;;;;;;8.95;4.97;;;8.30;21.60;;;;;;5026889;28;34103;-77
2022/03/06 09:35:45;;;;;;;6.90;4.68;;;8.40;20.80;;;;;;5026979;28;34105;-77
2022/03/06 09:38:11;;;;;;;7.97;4.80;;;8.60;20.00;;;;;;5026458;28;34112;-77
2022/03/06 09:40:42;;;;;;;7.40;4.75;;;8.70;18.70;;;;;;5025890;28;36060;-77
2022/03/06 09:43:16;;;;;;;6.28;4.53;;;8.70;18.50;;;;;;5044448;28;34244;-77
2022/03/06 09:45:44;;;;;;;5.57;4.10;;;8.80;16.70;;;;;;5026053;28;34362;-77
2022/03/06 09:48:12;;;;;;;6.03;4.22;;;8.80;17.90;;;;;;5026205;28;34241;-77
2022/03/06 09:50:39;;;;;;;4.80;3.75;;;8.90;17.50;;;;;;5009692;28;36419;-77
2022/03/06 09:53:06;;;;;;;7.70;3.83;;;8.90;17.80;;;;;;5010308;28;34354;-78
2022/03/06 09:55:32;;;;;;;6.53;4.00;;;9.00;17.70;;;;;;5026914;28;34170;-77
2022/03/06 09:57:59;;;;;;;5.63;4.05;;;9.00;16.90;;;;;;5043580;28;34131;-77
2022/03/06 10:00:26;;;;;;;5.18;4.05;;;9.10;16.90;;;;;;5010400;28;35765;-77
2022/03/06 10:03:01;;;;;;;5.70;3.67;;;9.20;16.40;;;;;;5010351;28;34047;-77
2022/03/06 10:05:37;;;;;;;6.03;4.20;;;9.30;11.70;;;;;;5044145;28;34061;-76
2022/03/06 10:08:28;;;;;;;5.15;3.83;;;9.20;8.60;;;;;;5009897;28;34092;-77
2022/03/06 10:10:57;;;;;;;6.97;4.15;;;9.40;10.90;;;;;;5046651;28;34515;-76
2022/03/06 10:13:29;;;;;;;6.90;4.40;;;9.50;15.00;;;;;;5025161;28;34060;-77
2022/03/06 10:16:01;;;;;;;5.82;3.95;;;9.70;13.30;;;;;;5020386;28;34319;-77
2022/03/06 10:18:30;;;;;;;6.55;4.05;;;9.90;15.00;;;;;;5045568;28;34163;-77
2022/03/06 10:21:15;;;;;;;4.82;3.55;;;9.90;14.30;;;;;;5045403;28;35437;-77
2022/03/06 10:23:42;;;;;;;6.53;4.05;;;10.00;8.10;;;;;;5028884;28;34133;-77
2022/03/06 10:26:13;;;;;;;5.00;3.67;;;10.10;13.80;;;;;;5064338;28;34242;-77
2022/03/06 10:28:57;;;;;;;4.45;3.53;;;10.00;9.30;;;;;;5047062;28;34399;-77
2022/03/06 10:31:26;;;;;;;5.03;3.67;;;10.00;8.20;;;;;;5064554;28;35156;-76
2022/03/06 10:34:04;;;;;;;6.13;4.22;;;10.10;12.30;;;;;;5063959;28;34036;-77
2022/03/06 10:36:35;;;;;;;4.70;3.78;;;10.00;9.50;;;;;;5064244;28;34110;-77
2022/03/06 10:39:09;;;;;;;6.93;3.67;;;10.10;10.60;;;;;;5046271;28;34539;-77
2022/03/06 10:41:39;;;;;;;5.60;3.83;;;10.10;12.20;;;;;;5045999;28;35053;-76
2022/03/06 10:44:08;;;;;;;4.97;3.45;;;10.20;12.80;;;;;;5045784;28;34080;-77
2022/03/06 10:46:36;;;;;;;5.97;4.10;;;10.20;7.00;;;;;;5046197;28;34225;-78
2022/03/06 10:49:08;;;;;;;4.82;3.65;;;10.10;12.00;;;;;;5029218;28;34280;-77
2022/03/06 10:51:41;;;;;;;4.93;3.72;;;10.10;10.60;;;;;;5047087;28;34342;-77
2022/03/06 10:54:08;;;;;;;5.60;3.90;;;10.10;10.70;;;;;;5028684;28;34274;-77
2022/03/06 10:56:34;;;;;;;6.57;3.85;;;10.20;12.50;;;;;;5045892;28;34156;-77
2022/03/06 10:59:04;;;;;;;4.80;3.22;;;10.20;11.70;;;;;;5030199;28;34429;-76
2022/03/06 11:01:32;;;;;;;5.85;3.80;;;10.10;7.10;;;;;;5030151;28;35788;-76
2022/03/06 11:04:02;;;;;;;5.40;4.03;;;10.10;11.00;;;;;;5047707;28;34298;-77
2022/03/06 11:06:32;;;;;;;4.78;3.45;;;10.10;10.90;;;;;;5029549;28;34192;-77
2022/03/06 11:08:59;;;;;;;8.15;4.28;;;10.00;11.00;;;;;;5046146;28;34165;-77
2022/03/06 11:11:26;;;;;;;5.18;3.72;;;10.20;11.20;;;;;;5038047;28;36379;-76
2022/03/06 11:13:55;;;;;;;5.43;3.88;;;10.10;11.50;;;;;;5009143;28;34171;-77
2022/03/06 11:16:23;;;;;;;6.75;3.45;;;10.20;9.10;;;;;;5026385;28;34014;-76
2022/03/06 11:18:49;;;;;;;7.60;3.83;;;10.40;11.50;;;;;;5009485;28;34471;-76
2022/03/06 11:21:16;;;;;;;4.53;3.58;;;10.50;10.00;;;;;;5043078;28;35232;-76
2022/03/06 11:23:48;;;;;;;4.88;3.97;;;10.50;10.80;;;;;;5027299;28;34078;-77
2022/03/06 11:26:49;;;;;;;5.13;3.92;;;10.60;9.30;;;;;;5012258;28;34305;-76
2022/03/06 11:29:48;;;;;;;5.60;3.33;;;10.80;6.20;;;;;;5001503;28;34145;-76
2022/03/06 11:32:25;;;;;;;4.68;3.60;;;10.90;5.10;;;;;;5028703;28;35621;-77
2022/03/06 11:34:59;;;;;;;5.55;3.70;;;10.90;7.10;;;;;;5028568;28;34212;-77
2022/03/06 11:37:28;;;;;;;5.15;3.17;;;10.90;9.90;;;;;;5028838;28;34125;-77
2022/03/06 11:39:55;;;;;;;5.82;3.92;;;11.10;10.30;;;;;;5028214;28;34390;-77
2022/03/06 11:42:52;;;;;;;4.70;3.58;;;11.20;10.70;;;;;;5012011;28;35905;-77
2022/03/06 11:45:49;;;;;;;4.80;3.42;;;11.00;2.40;;;;;;5000209;28;34294;-77
2022/03/06 11:48:25;;;;;;;4.90;3.63;;;11.00;3.20;;;;;;5028240;28;34271;-77
2022/03/06 11:51:22;;;;;;;5.47;3.85;;;11.00;7.30;;;;;;5029238;28;34169;-76
2022/03/06 11:53:53;;;;;;;5.13;3.95;;;11.00;3.70;;;;;;5027822;28;36258;-76
2022/03/06 11:56:46;;;;;;;4.72;3.63;;;11.10;9.30;;;;;;5011620;28;34213;-77
2022/03/06 11:59:24;;;;;;;5.35;3.80;;;11.10;2.40;;;;;;5027859;28;34129;-77
2022/03/06 12:01:58;;;;;;;5.28;3.92;;;10.90;3.30;;;;;;5027834;28;34199;-77
2022/03/06 12:04:29;;;;;;;5.13;3.95;;;10.90;8.50;;;;;;5028767;28;34456;-77
2022/03/06 12:07:03;;;;;;;4.28;3.45;;;11.00;9.20;;;;;;5012158;28;34208;-76
2022/03/06 12:09:33;;;;;;;5.63;3.67;;;11.10;8.60;;;;;;5028607;28;34106;-77
2022/03/06 12:12:02;;;;;;;5.05;3.75;;;11.10;8.30;;;;;;5058066;28;34264;-77
2022/03/06 12:14:33;;;;;;;3.95;3.33;;;11.10;9.60;;;;;;5064896;28;34246;-77
2022/03/06 12:17:20;;;;;;;5.85;4.05;;;11.10;9.10;;;;;;5065780;28;34172;-77
2022/03/06 12:20:10;;;;;;;5.65;3.90;;;11.00;2.80;;;;;;5047408;28;34230;-77
2022/03/06 12:22:45;;;;;;;4.18;3.60;;;11.00;3.00;;;;;;5034239;28;34038;-77
2022/03/06 12:25:25;;;;;;;7.30;4.18;;;10.90;6.40;;;;;;5046736;28;36094;-77
2022/03/06 12:28:16;;;;;;;5.93;3.67;;;11.00;5.50;;;;;;5031712;28;34154;-77
2022/03/06 12:30:43;;;;;;;7.95;4.13;;;11.00;3.10;;;;;;5047005;28;34504;-77
2022/03/06 12:33:25;;;;;;;7.03;4.43;;;10.90;9.60;;;;;;5047848;28;34172;-77
2022/03/06 12:36:07;;;;;;;6.10;4.20;;;10.90;5.40;;;;;;5047073;28;35030;-77
2022/03/06 12:38:34;;;;;;;6.53;4.18;;;10.90;9.60;;;;;;5065364;28;34052;-77
2022/03/06 12:41:01;;;;;;;6.03;3.92;;;10.90;8.20;;;;;;5048274;28;34120;-77
2022/03/06 12:43:31;;;;;;;6.55;4.40;;;10.90;9.10;;;;;;5065040;28;34345;-77
2022/03/06 12:45:59;;;;;;;5.35;4.10;;;10.90;7.30;;;;;;5030435;28;35736;-77
2022/03/06 12:48:26;;;;;;;6.20;3.65;;;10.80;7.70;;;;;;5047301;28;34069;-76
2022/03/06 12:50:52;;;;;;;5.75;4.05;;;10.60;8.60;;;;;;5047015;28;34076;-77
2022/03/06 12:53:20;;;;;;;5.15;3.85;;;10.60;9.50;;;;;;5046730;28;34567;-76
2022/03/06 12:55:46;;;;;;;6.18;4.68;;;10.60;8.00;;;;;;5047122;28;35795;-77